Tasman Crusader — A8NQ7 — position and weather

sailwx.info

Track history (hours):
 
Tides and Currents Weather Stations Pressure Air Temp Water Temp Dewpoint Dewpoint Depression Visibility Wind Speed Wind Dir Waves Ship Positions

Tasman Crusader

Last reported at 2018-Jun-08 06:00 UTC. Time now 2018-Jun-24 20:39 UTC.
Position N 14°30' W 094°18'.
Warning: this ship's position is 16 days out of date.

Length 186 m; draft 8.6 m.

Type: Ship (hazmat cat A). MMSI: 636091434.

Wind from 110 at 10 knots

Barometer 1012.1 mb
Air temperature 27.0 ° C
Visibility: greater than 10.8 NM
Dewpoint 24.1 ° C
Water temperature 26.0 ° C

Date/timePositionNaut miles runAvg speedWind from/ knotsBaromVisibWave heightAir tempDewpointWater temp
2018-Jun-08 06:00N 14°30' W 094°18'   110 / 101012.110.8 27.024.126.0
2018-Jun-05 21:00N 19°30' W 105°48'45616.9 280 / 101011.010.8 30.025.129.0
2018-Jun-04 18:00N 24°00' W 112°24'48517.3 350 / 101015.010.8 17.015.317.0
2018-Jun-03 13:54N 30°30' W 117°50'717.0
2018-Jun-03 13:30N 30°35' W 117°54'1717.1
2018-Jun-03 12:31N 30°49' W 118°05'317.4
2018-Jun-03 12:19N 30°52' W 118°07'517.6
2018-Jun-03 12:00N 30°57' W 118°11'1917.0
2018-Jun-03 10:55N 31°12' W 118°23'717.0
2018-Jun-03 10:31N 31°18' W 118°28'917.0
2018-Jun-03 09:59N 31°25' W 118°34'916.7
2018-Jun-03 09:26N 31°32' W 118°40'2216.6
2018-Jun-03 08:06N 31°50' W 118°56'2717.2
2018-Jun-03 06:31N 32°12' W 119°15'317.4
2018-Jun-03 06:22N 32°14' W 119°16'1417.2
2018-Jun-03 05:32N 32°26' W 119°26'116.5
2018-Jun-03 05:30N 32°26' W 119°27'1217.1
2018-Jun-03 04:49N 32°35' W 119°35'517.0
2018-Jun-03 04:30N 32°40' W 119°39'2117.2
2018-Jun-03 03:16N 32°57' W 119°54'517.3
2018-Jun-03 03:00N 33°01' W 119°57'817.1
2018-Jun-03 02:31N 33°08' W 120°03'917.2
2018-Jun-03 02:00N 33°15' W 120°09'817.2
2018-Jun-03 01:30N 33°21' W 120°15'816.9
2018-Jun-03 01:00N 33°28' W 120°21'816.6
2018-Jun-03 00:31N 33°35' W 120°27'917.0
2018-Jun-03 00:00N 33°42' W 120°33'917.1
2018-Jun-02 23:30N 33°49' W 120°39'917.2
2018-Jun-02 23:00N 33°56' W 120°45'917.1
2018-Jun-02 22:30N 34°03' W 120°51'917.3
2018-Jun-02 21:59N 34°10' W 120°58'917.1
2018-Jun-02 21:26N 34°18' W 121°04'1416.6
2018-Jun-02 20:36N 34°29' W 121°14'416.9
2018-Jun-02 20:21N 34°33' W 121°16'717.3
2018-Jun-02 19:58N 34°38' W 121°20'817.4
2018-Jun-02 19:30N 34°46' W 121°24'917.6
2018-Jun-02 18:59N 34°54' W 121°29'817.2
2018-Jun-02 18:30N 35°01' W 121°33'917.3
2018-Jun-02 18:00N 35°09' W 121°38'918.4
2018-Jun-02 17:30N 35°18' W 121°42'816.1
2018-Jun-02 16:59N 35°25' W 121°47'917.0
2018-Jun-02 16:27N 35°33' W 121°52'817.0
2018-Jun-02 15:59N 35°40' W 121°56'917.4
2018-Jun-02 15:29N 35°48' W 122°01'2217.1
2018-Jun-02 14:11N 36°08' W 122°13'317.3
2018-Jun-02 14:00N 36°11' W 122°14'817.1
2018-Jun-02 13:30N 36°19' W 122°19'917.3
2018-Jun-02 13:00N 36°27' W 122°23'917.2
2018-Jun-02 12:29N 36°35' W 122°27'817.1
2018-Jun-02 12:00N 36°43' W 122°30'817.1
2018-Jun-02 11:30N 36°51' W 122°34'917.2
2018-Jun-02 11:00N 36°59' W 122°38'917.1
2018-Jun-02 10:30N 37°07' W 122°42'917.1
2018-Jun-02 10:00N 37°15' W 122°44'612.2
2018-Jun-02 09:30N 37°21' W 122°44'510.3
2018-Jun-02 09:00N 37°26' W 122°44'510.2
2018-Jun-02 08:30N 37°32' W 122°44'510.1
2018-Jun-02 08:01N 37°37' W 122°44'5 9.5
2018-Jun-02 07:30N 37°41' W 122°42'510.0
2018-Jun-02 07:00N 37°46' W 122°40'713.9
2018-Jun-02 06:30N 37°48' W 122°32'713.1
2018-Jun-02 06:00N 37°50' W 122°24'4 8.2
2018-Jun-02 05:28N 37°48' W 122°19'0 0.0
2018-Jun-02 04:58N 37°48' W 122°19'0 0.0
2018-Jun-02 04:28N 37°48' W 122°19'0 0.0
2018-Jun-02 03:58N 37°48' W 122°19'0 0.0
2018-Jun-02 03:28N 37°48' W 122°19'0 0.0
2018-Jun-02 02:58N 37°48' W 122°19'0 0.0
2018-Jun-02 02:25N 37°48' W 122°19'0 0.0
2018-Jun-02 01:58N 37°48' W 122°19'0 0.0
2018-Jun-02 01:28N 37°48' W 122°19'0 0.0
2018-Jun-02 00:58N 37°48' W 122°19'0 0.0
2018-Jun-02 00:28N 37°48' W 122°19'0 0.0
2018-Jun-01 23:58N 37°48' W 122°19'0 0.0
2018-Jun-01 23:28N 37°48' W 122°19'0 0.0
2018-Jun-01 22:58N 37°48' W 122°19'0 0.0
2018-Jun-01 22:25N 37°48' W 122°19'0 0.0
2018-Jun-01 21:58N 37°48' W 122°19'0 0.0
2018-Jun-01 21:28N 37°48' W 122°19'0 0.0
2018-Jun-01 20:58N 37°48' W 122°19'0 0.0
2018-Jun-01 20:28N 37°48' W 122°19'0 0.0
2018-Jun-01 19:58N 37°48' W 122°19'0 0.0
2018-Jun-01 19:25N 37°48' W 122°19'0 0.0
2018-Jun-01 18:58N 37°48' W 122°19'0 0.0
2018-Jun-01 18:28N 37°48' W 122°19'0 0.0
2018-Jun-01 17:58N 37°48' W 122°19'0 0.0
2018-Jun-01 17:28N 37°48' W 122°19'0 0.0
2018-Jun-01 16:58N 37°48' W 122°19'0 0.0
2018-Jun-01 16:28N 37°48' W 122°19'0 0.0
2018-Jun-01 15:58N 37°48' W 122°19'0 0.0
2018-Jun-01 15:28N 37°48' W 122°19'0 0.0
2018-Jun-01 14:58N 37°48' W 122°19'0 0.0
2018-Jun-01 14:28N 37°48' W 122°19'0 0.0
2018-Jun-01 14:01N 37°48' W 122°19'0 0.0
2018-Jun-01 13:30N 37°48' W 122°19'2 4.0
2018-Jun-01 13:00N 37°48' W 122°22'5 9.3
2018-Jun-01 12:30N 37°49' W 122°27'611.5
2018-Jun-01 12:00N 37°47' W 122°34'611.7
2018-Jun-01 11:30N 37°45' W 122°41'5 9.5
2018-Jun-01 11:00N 37°40' W 122°40'510.0
2018-Jun-01 10:30N 37°35' W 122°40'5 9.9
2018-Jun-01 10:00N 37°30' W 122°40'510.1
2018-Jun-01 09:30N 37°25' W 122°40'510.1
2018-Jun-01 09:00N 37°20' W 122°40'612.4
2018-Jun-01 08:30N 37°14' W 122°40'713.2
2018-Jun-01 08:00N 37°07' W 122°39'713.4
2018-Jun-01 07:30N 37°01' W 122°36'10913.1
2018-May-31 23:07N 35°23' W 121°34'513.1
2018-May-31 22:46N 35°19' W 121°31'312.7
2018-May-31 22:30N 35°16' W 121°29'612.8
2018-May-31 22:00N 35°11' W 121°25'612.8
2018-May-31 21:30N 35°06' W 121°21'713.0
2018-May-31 21:00N 35°00' W 121°17'713.3
2018-May-31 20:29N 34°54' W 121°12'713.6
2018-May-31 19:59N 34°48' W 121°08'713.3
2018-May-31 19:30N 34°43' W 121°04'714.0
2018-May-31 19:00N 34°37' W 120°60'714.2
2018-May-31 18:30N 34°31' W 120°55'713.4
2018-May-31 18:00N 34°26' W 120°50'714.2
2018-May-31 17:30N 34°24' W 120°41'714.2
2018-May-31 16:59N 34°22' W 120°33'714.2
2018-May-31 16:30N 34°20' W 120°25'714.4
2018-May-31 16:00N 34°18' W 120°16'714.5
2018-May-31 15:30N 34°17' W 120°08'714.4
2018-May-31 15:00N 34°15' W 119°59'714.3
2018-May-31 14:30N 34°13' W 119°51'714.2
2018-May-31 14:00N 34°11' W 119°43'714.1
2018-May-31 13:30N 34°09' W 119°35'914.5
2018-May-31 12:54N 34°07' W 119°25'614.2
2018-May-31 12:28N 34°05' W 119°17'614.1
2018-May-31 12:00N 34°02' W 119°10'813.2
2018-May-31 11:26N 33°58' W 119°02'511.0
2018-May-31 10:57N 33°55' W 118°57'611.5
2018-May-31 10:24N 33°52' W 118°50'511.7
2018-May-31 10:01N 33°50' W 118°46'611.9
2018-May-31 09:30N 33°47' W 118°39'611.7
2018-May-31 09:00N 33°44' W 118°33'611.4
2018-May-31 08:30N 33°41' W 118°27'611.1
2018-May-31 08:00N 33°39' W 118°21'611.2
2018-May-31 07:30N 33°39' W 118°15'510.5
2018-May-31 07:01N 33°43' W 118°11'3 6.0
2018-May-31 06:30N 33°46' W 118°13'1 1.8
2018-May-31 06:00N 33°46' W 118°14'0 0.0
2018-May-31 05:30N 33°46' W 118°14'0 0.0
2018-May-31 05:00N 33°46' W 118°14'0 0.0
2018-May-31 04:30N 33°46' W 118°14'0 0.0
2018-May-31 04:00N 33°46' W 118°14'0 0.0
2018-May-31 03:30N 33°46' W 118°14'0 0.0
2018-May-31 03:00N 33°46' W 118°14'0 0.0
2018-May-31 02:30N 33°46' W 118°14'0 0.0
2018-May-31 02:00N 33°46' W 118°14'0 0.0
2018-May-31 01:30N 33°46' W 118°14'0 0.0
2018-May-31 00:57N 33°46' W 118°14'0 0.0
2018-May-31 00:27N 33°46' W 118°14'0 0.0
2018-May-31 00:00N 33°46' W 118°14'0 0.0
2018-May-30 23:30N 33°46' W 118°14'0 0.0
2018-May-30 23:00N 33°46' W 118°14'0 0.0
2018-May-30 22:30N 33°46' W 118°14'0 0.0
2018-May-30 22:00N 33°46' W 118°14'0 0.0
2018-May-30 21:30N 33°46' W 118°14'0 0.0
2018-May-30 21:00N 33°46' W 118°14'0 0.0
2018-May-30 20:30N 33°46' W 118°14'0 0.0
2018-May-30 19:57N 33°46' W 118°14'0 0.0
2018-May-30 19:30N 33°46' W 118°14'0 0.0
2018-May-30 19:00N 33°46' W 118°14'0 0.0
2018-May-30 18:30N 33°46' W 118°14'0 0.0
2018-May-30 17:54N 33°46' W 118°14'0 0.0
2018-May-30 17:30N 33°46' W 118°14'0 0.0
2018-May-30 17:00N 33°46' W 118°14'0 0.0
2018-May-30 16:30N 33°46' W 118°14'0 0.0
2018-May-30 16:00N 33°46' W 118°14'0 0.0
2018-May-30 15:30N 33°46' W 118°14'0 0.0
2018-May-30 15:00N 33°46' W 118°14'0 0.0
2018-May-30 14:30N 33°46' W 118°14'0 0.0
2018-May-30 14:00N 33°46' W 118°14'0 0.0
2018-May-30 13:27N 33°46' W 118°14'0 0.0
2018-May-30 13:00N 33°46' W 118°14'0 0.0
2018-May-30 12:30N 33°46' W 118°14'0 0.0
2018-May-30 12:00N 33°46' W 118°14'0 0.0
2018-May-30 11:30N 33°46' W 118°14'0 0.8
2018-May-30 11:00N 33°46' W 118°13'2 4.4
2018-May-30 10:30N 33°44' W 118°12'4 8.9
2018-May-30 10:00N 33°40' W 118°10'5 9.2
2018-May-30 09:30N 33°35' W 118°09'610.7
2018-May-30 08:58N 33°30' W 118°07'1211.0
2018-May-30 07:53N 33°19' W 118°02'411.5
2018-May-30 07:30N 33°15' W 118°00'611.3
2018-May-30 07:00N 33°09' W 117°58'511.0
2018-May-30 06:30N 33°04' W 117°56'714.6
2018-May-30 06:00N 32°58' W 117°52'815.3
2018-May-30 05:30N 32°51' W 117°48'715.0
2018-May-30 05:00N 32°44' W 117°44'714.9
2018-May-30 04:30N 32°37' W 117°41'714.9
2018-May-30 04:00N 32°30' W 117°38'  
Track history (hours):
 
Tides and Currents Weather Stations Pressure Air Temp Water Temp Dewpoint Dewpoint Depression Visibility Wind Speed Wind Dir Waves Ship Positions

Tasman Crusader

Last reported at 2018-Jun-08 06:00 UTC. Time now 2018-Jun-24 20:39 UTC.
Position N 14°30' W 094°18'.
Warning: this ship's position is 16 days out of date.

Length 186 m; draft 8.6 m.

Type: Ship (hazmat cat A). MMSI: 636091434.

Wind from 110 at 10 knots

Barometer 1012.1 mb
Air temperature 27.0 ° C
Visibility: greater than 10.8 NM
Dewpoint 24.1 ° C
Water temperature 26.0 ° C

Date/timePositionNaut miles runAvg speedWind from/ knotsBaromVisibWave heightAir tempDewpointWater temp
2018-Jun-08 06:00N 14°30' W 094°18'   110 / 101012.110.8 27.024.126.0
2018-Jun-05 21:00N 19°30' W 105°48'45616.9 280 / 101011.010.8 30.025.129.0
2018-Jun-04 18:00N 24°00' W 112°24'48517.3 350 / 101015.010.8 17.015.317.0
2018-Jun-03 13:54N 30°30' W 117°50'717.0
2018-Jun-03 13:30N 30°35' W 117°54'1717.1
2018-Jun-03 12:31N 30°49' W 118°05'317.4
2018-Jun-03 12:19N 30°52' W 118°07'517.6
2018-Jun-03 12:00N 30°57' W 118°11'1917.0
2018-Jun-03 10:55N 31°12' W 118°23'717.0
2018-Jun-03 10:31N 31°18' W 118°28'917.0
2018-Jun-03 09:59N 31°25' W 118°34'916.7
2018-Jun-03 09:26N 31°32' W 118°40'2216.6
2018-Jun-03 08:06N 31°50' W 118°56'2717.2
2018-Jun-03 06:31N 32°12' W 119°15'317.4
2018-Jun-03 06:22N 32°14' W 119°16'1417.2
2018-Jun-03 05:32N 32°26' W 119°26'116.5
2018-Jun-03 05:30N 32°26' W 119°27'1217.1
2018-Jun-03 04:49N 32°35' W 119°35'517.0
2018-Jun-03 04:30N 32°40' W 119°39'2117.2
2018-Jun-03 03:16N 32°57' W 119°54'517.3
2018-Jun-03 03:00N 33°01' W 119°57'817.1
2018-Jun-03 02:31N 33°08' W 120°03'917.2
2018-Jun-03 02:00N 33°15' W 120°09'817.2
2018-Jun-03 01:30N 33°21' W 120°15'816.9
2018-Jun-03 01:00N 33°28' W 120°21'816.6
2018-Jun-03 00:31N 33°35' W 120°27'917.0
2018-Jun-03 00:00N 33°42' W 120°33'917.1
2018-Jun-02 23:30N 33°49' W 120°39'917.2
2018-Jun-02 23:00N 33°56' W 120°45'917.1
2018-Jun-02 22:30N 34°03' W 120°51'917.3
2018-Jun-02 21:59N 34°10' W 120°58'917.1
2018-Jun-02 21:26N 34°18' W 121°04'1416.6
2018-Jun-02 20:36N 34°29' W 121°14'416.9
2018-Jun-02 20:21N 34°33' W 121°16'717.3
2018-Jun-02 19:58N 34°38' W 121°20'817.4
2018-Jun-02 19:30N 34°46' W 121°24'917.6
2018-Jun-02 18:59N 34°54' W 121°29'817.2
2018-Jun-02 18:30N 35°01' W 121°33'917.3
2018-Jun-02 18:00N 35°09' W 121°38'918.4
2018-Jun-02 17:30N 35°18' W 121°42'816.1
2018-Jun-02 16:59N 35°25' W 121°47'917.0
2018-Jun-02 16:27N 35°33' W 121°52'817.0
2018-Jun-02 15:59N 35°40' W 121°56'917.4
2018-Jun-02 15:29N 35°48' W 122°01'2217.1
2018-Jun-02 14:11N 36°08' W 122°13'317.3
2018-Jun-02 14:00N 36°11' W 122°14'817.1
2018-Jun-02 13:30N 36°19' W 122°19'917.3
2018-Jun-02 13:00N 36°27' W 122°23'917.2
2018-Jun-02 12:29N 36°35' W 122°27'817.1
2018-Jun-02 12:00N 36°43' W 122°30'817.1
2018-Jun-02 11:30N 36°51' W 122°34'917.2
2018-Jun-02 11:00N 36°59' W 122°38'917.1
2018-Jun-02 10:30N 37°07' W 122°42'917.1
2018-Jun-02 10:00N 37°15' W 122°44'612.2
2018-Jun-02 09:30N 37°21' W 122°44'510.3
2018-Jun-02 09:00N 37°26' W 122°44'510.2
2018-Jun-02 08:30N 37°32' W 122°44'510.1
2018-Jun-02 08:01N 37°37' W 122°44'5 9.5
2018-Jun-02 07:30N 37°41' W 122°42'510.0
2018-Jun-02 07:00N 37°46' W 122°40'713.9
2018-Jun-02 06:30N 37°48' W 122°32'713.1
2018-Jun-02 06:00N 37°50' W 122°24'4 8.2
2018-Jun-02 05:28N 37°48' W 122°19'0 0.0
2018-Jun-02 04:58N 37°48' W 122°19'0 0.0
2018-Jun-02 04:28N 37°48' W 122°19'0 0.0
2018-Jun-02 03:58N 37°48' W 122°19'0 0.0
2018-Jun-02 03:28N 37°48' W 122°19'0 0.0
2018-Jun-02 02:58N 37°48' W 122°19'0 0.0
2018-Jun-02 02:25N 37°48' W 122°19'0 0.0
2018-Jun-02 01:58N 37°48' W 122°19'0 0.0
2018-Jun-02 01:28N 37°48' W 122°19'0 0.0
2018-Jun-02 00:58N 37°48' W 122°19'0 0.0
2018-Jun-02 00:28N 37°48' W 122°19'0 0.0
2018-Jun-01 23:58N 37°48' W 122°19'0 0.0
2018-Jun-01 23:28N 37°48' W 122°19'0 0.0
2018-Jun-01 22:58N 37°48' W 122°19'0 0.0
2018-Jun-01 22:25N 37°48' W 122°19'0 0.0
2018-Jun-01 21:58N 37°48' W 122°19'0 0.0
2018-Jun-01 21:28N 37°48' W 122°19'0 0.0
2018-Jun-01 20:58N 37°48' W 122°19'0 0.0
2018-Jun-01 20:28N 37°48' W 122°19'0 0.0
2018-Jun-01 19:58N 37°48' W 122°19'0 0.0
2018-Jun-01 19:25N 37°48' W 122°19'0 0.0
2018-Jun-01 18:58N 37°48' W 122°19'0 0.0
2018-Jun-01 18:28N 37°48' W 122°19'0 0.0
2018-Jun-01 17:58N 37°48' W 122°19'0 0.0
2018-Jun-01 17:28N 37°48' W 122°19'0 0.0
2018-Jun-01 16:58N 37°48' W 122°19'0 0.0
2018-Jun-01 16:28N 37°48' W 122°19'0 0.0
2018-Jun-01 15:58N 37°48' W 122°19'0 0.0
2018-Jun-01 15:28N 37°48' W 122°19'0 0.0
2018-Jun-01 14:58N 37°48' W 122°19'0 0.0
2018-Jun-01 14:28N 37°48' W 122°19'0 0.0
2018-Jun-01 14:01N 37°48' W 122°19'0 0.0
2018-Jun-01 13:30N 37°48' W 122°19'2 4.0
2018-Jun-01 13:00N 37°48' W 122°22'5 9.3
2018-Jun-01 12:30N 37°49' W 122°27'611.5
2018-Jun-01 12:00N 37°47' W 122°34'611.7
2018-Jun-01 11:30N 37°45' W 122°41'5 9.5
2018-Jun-01 11:00N 37°40' W 122°40'510.0
2018-Jun-01 10:30N 37°35' W 122°40'5 9.9
2018-Jun-01 10:00N 37°30' W 122°40'510.1
2018-Jun-01 09:30N 37°25' W 122°40'510.1
2018-Jun-01 09:00N 37°20' W 122°40'612.4
2018-Jun-01 08:30N 37°14' W 122°40'713.2
2018-Jun-01 08:00N 37°07' W 122°39'713.4
2018-Jun-01 07:30N 37°01' W 122°36'10913.1
2018-May-31 23:07N 35°23' W 121°34'513.1
2018-May-31 22:46N 35°19' W 121°31'312.7
2018-May-31 22:30N 35°16' W 121°29'612.8
2018-May-31 22:00N 35°11' W 121°25'612.8
2018-May-31 21:30N 35°06' W 121°21'713.0
2018-May-31 21:00N 35°00' W 121°17'713.3
2018-May-31 20:29N 34°54' W 121°12'713.6
2018-May-31 19:59N 34°48' W 121°08'713.3
2018-May-31 19:30N 34°43' W 121°04'714.0
2018-May-31 19:00N 34°37' W 120°60'714.2
2018-May-31 18:30N 34°31' W 120°55'713.4
2018-May-31 18:00N 34°26' W 120°50'714.2
2018-May-31 17:30N 34°24' W 120°41'714.2
2018-May-31 16:59N 34°22' W 120°33'714.2
2018-May-31 16:30N 34°20' W 120°25'714.4
2018-May-31 16:00N 34°18' W 120°16'714.5
2018-May-31 15:30N 34°17' W 120°08'714.4
2018-May-31 15:00N 34°15' W 119°59'714.3
2018-May-31 14:30N 34°13' W 119°51'714.2
2018-May-31 14:00N 34°11' W 119°43'714.1
2018-May-31 13:30N 34°09' W 119°35'914.5
2018-May-31 12:54N 34°07' W 119°25'614.2
2018-May-31 12:28N 34°05' W 119°17'614.1
2018-May-31 12:00N 34°02' W 119°10'813.2
2018-May-31 11:26N 33°58' W 119°02'511.0
2018-May-31 10:57N 33°55' W 118°57'611.5
2018-May-31 10:24N 33°52' W 118°50'511.7
2018-May-31 10:01N 33°50' W 118°46'611.9
2018-May-31 09:30N 33°47' W 118°39'611.7
2018-May-31 09:00N 33°44' W 118°33'611.4
2018-May-31 08:30N 33°41' W 118°27'611.1
2018-May-31 08:00N 33°39' W 118°21'611.2
2018-May-31 07:30N 33°39' W 118°15'510.5
2018-May-31 07:01N 33°43' W 118°11'3 6.0
2018-May-31 06:30N 33°46' W 118°13'1 1.8
2018-May-31 06:00N 33°46' W 118°14'0 0.0
2018-May-31 05:30N 33°46' W 118°14'0 0.0
2018-May-31 05:00N 33°46' W 118°14'0 0.0
2018-May-31 04:30N 33°46' W 118°14'0 0.0
2018-May-31 04:00N 33°46' W 118°14'0 0.0
2018-May-31 03:30N 33°46' W 118°14'0 0.0
2018-May-31 03:00N 33°46' W 118°14'0 0.0
2018-May-31 02:30N 33°46' W 118°14'0 0.0
2018-May-31 02:00N 33°46' W 118°14'0 0.0
2018-May-31 01:30N 33°46' W 118°14'0 0.0
2018-May-31 00:57N 33°46' W 118°14'0 0.0
2018-May-31 00:27N 33°46' W 118°14'0 0.0
2018-May-31 00:00N 33°46' W 118°14'0 0.0
2018-May-30 23:30N 33°46' W 118°14'0 0.0
2018-May-30 23:00N 33°46' W 118°14'0 0.0
2018-May-30 22:30N 33°46' W 118°14'0 0.0
2018-May-30 22:00N 33°46' W 118°14'0 0.0
2018-May-30 21:30N 33°46' W 118°14'0 0.0
2018-May-30 21:00N 33°46' W 118°14'0 0.0
2018-May-30 20:30N 33°46' W 118°14'0 0.0
2018-May-30 19:57N 33°46' W 118°14'0 0.0
2018-May-30 19:30N 33°46' W 118°14'0 0.0
2018-May-30 19:00N 33°46' W 118°14'0 0.0
2018-May-30 18:30N 33°46' W 118°14'0 0.0
2018-May-30 17:54N 33°46' W 118°14'0 0.0
2018-May-30 17:30N 33°46' W 118°14'0 0.0
2018-May-30 17:00N 33°46' W 118°14'0 0.0
2018-May-30 16:30N 33°46' W 118°14'0 0.0
2018-May-30 16:00N 33°46' W 118°14'0 0.0
2018-May-30 15:30N 33°46' W 118°14'0 0.0
2018-May-30 15:00N 33°46' W 118°14'0 0.0
2018-May-30 14:30N 33°46' W 118°14'0 0.0
2018-May-30 14:00N 33°46' W 118°14'0 0.0
2018-May-30 13:27N 33°46' W 118°14'0 0.0
2018-May-30 13:00N 33°46' W 118°14'0 0.0
2018-May-30 12:30N 33°46' W 118°14'0 0.0
2018-May-30 12:00N 33°46' W 118°14'0 0.0
2018-May-30 11:30N 33°46' W 118°14'0 0.8
2018-May-30 11:00N 33°46' W 118°13'2 4.4
2018-May-30 10:30N 33°44' W 118°12'4 8.9
2018-May-30 10:00N 33°40' W 118°10'5 9.2
2018-May-30 09:30N 33°35' W 118°09'610.7
2018-May-30 08:58N 33°30' W 118°07'1211.0
2018-May-30 07:53N 33°19' W 118°02'411.5
2018-May-30 07:30N 33°15' W 118°00'611.3
2018-May-30 07:00N 33°09' W 117°58'511.0
2018-May-30 06:30N 33°04' W 117°56'714.6
2018-May-30 06:00N 32°58' W 117°52'815.3
2018-May-30 05:30N 32°51' W 117°48'715.0
2018-May-30 05:00N 32°44' W 117°44'714.9
2018-May-30 04:30N 32°37' W 117°41'714.9
2018-May-30 04:00N 32°30' W 117°38'  

Dump ship's entire track history